Time;durP1;ratioP1;P1;durP2;ratioP2;P2;SDS_P1;SDS_P2;PMS_P1;PMS_P2;Temp;Humidity;BMP_temperature;BMP_pressure;BME280_temperature;BME280_humidity;BME280_pressure;Samples;Min_cycle;Max_cycle;Signal;HPM_P1;HPM_P2
2024/01/16 00:01:54;;;;;;;10.45;1.50;;;;;;;;;;4970928;28;20043;-65
2024/01/16 00:04:20;;;;;;;6.18;1.60;;;;;;;;;;4971153;28;20137;-65
2024/01/16 00:06:46;;;;;;;6.63;1.52;;;;;;;;;;4971367;28;20043;-65
2024/01/16 00:09:12;;;;;;;11.32;1.60;;;;;;;;;;4971314;28;20661;-65
2024/01/16 00:11:42;;;;;;;10.38;1.80;;;;;;;;;;4972445;28;20042;-65
2024/01/16 00:14:08;;;;;;;9.20;1.80;;;;;;;;;;4987221;28;20065;-65
2024/01/16 00:16:34;;;;;;;7.85;1.23;;;;;;;;;;4980934;28;20086;-66
2024/01/16 00:19:00;;;;;;;7.07;1.40;;;;;;;;;;4981856;28;20136;-65
2024/01/16 00:21:26;;;;;;;6.40;1.42;;;;;;;;;;4977846;28;20458;-66
2024/01/16 00:23:52;;;;;;;6.38;1.42;;;;;;;;;;4970971;28;20078;-66
2024/01/16 00:26:21;;;;;;;9.25;0.88;;;;;;;;;;4975069;28;20069;-66
2024/01/16 00:28:47;;;;;;;6.47;1.20;;;;;;;;;;4971249;28;20046;-66
2024/01/16 00:31:13;;;;;;;11.13;1.70;;;;;;;;;;4970182;28;20130;-66
2024/01/16 00:33:39;;;;;;;3.85;1.08;;;;;;;;;;4971149;28;20047;-66
2024/01/16 00:36:06;;;;;;;8.77;1.55;;;;;;;;;;4970337;28;20082;-66
2024/01/16 00:38:35;;;;;;;10.38;1.73;;;;;;;;;;4970769;28;20042;-66
2024/01/16 00:41:01;;;;;;;4.22;1.30;;;;;;;;;;4970386;28;20038;-66
2024/01/16 00:43:27;;;;;;;9.65;1.25;;;;;;;;;;4953505;28;20678;-66
2024/01/16 00:45:53;;;;;;;7.00;1.35;;;;;;;;;;4970799;28;20042;-66
2024/01/16 00:48:20;;;;;;;9.77;1.15;;;;;;;;;;4970421;28;20507;-65
2024/01/16 00:50:49;;;;;;;7.15;1.13;;;;;;;;;;4970547;28;20125;-65
2024/01/16 00:53:15;;;;;;;9.30;1.63;;;;;;;;;;4970334;28;20057;-66
2024/01/16 00:55:41;;;;;;;13.48;1.40;;;;;;;;;;4970162;28;20433;-66
2024/01/16 00:58:07;;;;;;;9.55;1.30;;;;;;;;;;4969429;28;20560;-66
2024/01/16 01:00:34;;;;;;;6.85;1.20;;;;;;;;;;4970421;28;20078;-66
2024/01/16 01:03:00;;;;;;;7.82;1.60;;;;;;;;;;4979079;28;20117;-66
2024/01/16 01:05:28;;;;;;;7.80;1.15;;;;;;;;;;4989848;28;20129;-66
2024/01/16 01:07:55;;;;;;;7.63;1.40;;;;;;;;;;4972885;28;20134;-66
2024/01/16 01:10:21;;;;;;;5.25;0.93;;;;;;;;;;4974481;28;20154;-65
2024/01/16 01:12:47;;;;;;;7.93;1.10;;;;;;;;;;4974044;28;20081;-65
2024/01/16 01:15:13;;;;;;;8.57;1.10;;;;;;;;;;4985195;28;20130;-65
2024/01/16 01:17:40;;;;;;;6.68;1.88;;;;;;;;;;4975517;28;20050;-65
2024/01/16 01:20:06;;;;;;;5.15;1.20;;;;;;;;;;4975355;28;20042;-65
2024/01/16 01:22:32;;;;;;;7.95;1.17;;;;;;;;;;4988147;28;20066;-65
2024/01/16 01:24:58;;;;;;;4.68;0.90;;;;;;;;;;4974565;28;20047;-65
2024/01/16 01:27:24;;;;;;;7.15;1.08;;;;;;;;;;4979819;28;20051;-65
2024/01/16 01:29:50;;;;;;;6.63;1.08;;;;;;;;;;4974085;28;20043;-66
2024/01/16 01:32:16;;;;;;;4.18;0.88;;;;;;;;;;4957062;28;20061;-66
2024/01/16 01:34:42;;;;;;;5.60;0.90;;;;;;;;;;4973573;28;20035;-65
2024/01/16 01:37:08;;;;;;;5.45;0.90;;;;;;;;;;4974174;28;20043;-66
2024/01/16 01:39:34;;;;;;;7.00;0.75;;;;;;;;;;4986913;28;20038;-66
2024/01/16 01:42:01;;;;;;;4.32;0.80;;;;;;;;;;4992314;28;20488;-66
2024/01/16 01:44:27;;;;;;;9.10;1.33;;;;;;;;;;4974246;28;20046;-65
2024/01/16 01:46:55;;;;;;;5.43;0.85;;;;;;;;;;4973689;28;20038;-65
2024/01/16 01:49:22;;;;;;;8.40;1.33;;;;;;;;;;4973627;28;20393;-65
2024/01/16 01:51:49;;;;;;;4.13;0.93;;;;;;;;;;4970708;28;20539;-65
2024/01/16 01:54:15;;;;;;;3.88;1.02;;;;;;;;;;4991184;28;20101;-65
2024/01/16 01:56:43;;;;;;;7.35;1.23;;;;;;;;;;4973695;28;20446;-65
2024/01/16 01:59:09;;;;;;;9.15;1.00;;;;;;;;;;4973444;28;20492;-65
2024/01/16 02:01:35;;;;;;;7.93;0.90;;;;;;;;;;4973649;28;20043;-65
2024/01/16 02:04:02;;;;;;;9.48;1.38;;;;;;;;;;4988914;28;20054;-65
2024/01/16 02:06:37;;;;;;;4.03;0.90;;;;;;;;;;4987026;28;20577;-65
2024/01/16 02:09:06;;;;;;;5.38;0.68;;;;;;;;;;4965868;28;20125;-66
2024/01/16 02:11:33;;;;;;;4.10;1.10;;;;;;;;;;4976470;28;20561;-66
2024/01/16 02:13:59;;;;;;;8.95;1.55;;;;;;;;;;4986365;28;20070;-66
2024/01/16 02:16:25;;;;;;;7.43;1.00;;;;;;;;;;4973163;28;20078;-65
2024/01/16 02:18:51;;;;;;;6.78;0.98;;;;;;;;;;4972695;28;20508;-66
2024/01/16 02:21:25;;;;;;;4.68;1.00;;;;;;;;;;4983194;28;20070;-65
2024/01/16 02:23:52;;;;;;;7.10;1.02;;;;;;;;;;4979783;28;20517;-65
2024/01/16 02:26:19;;;;;;;3.85;0.93;;;;;;;;;;4981980;28;20038;-65
2024/01/16 02:28:45;;;;;;;7.53;0.90;;;;;;;;;;4973066;28;20533;-65
2024/01/16 02:31:11;;;;;;;5.47;1.20;;;;;;;;;;4973277;28;20464;-65
2024/01/16 02:33:37;;;;;;;8.43;1.35;;;;;;;;;;4972465;28;20078;-66
2024/01/16 02:36:03;;;;;;;5.10;0.90;;;;;;;;;;4972690;28;20043;-66
2024/01/16 02:38:29;;;;;;;6.10;0.95;;;;;;;;;;4973683;28;20031;-66
2024/01/16 02:40:55;;;;;;;5.43;1.13;;;;;;;;;;4992248;28;20126;-65
2024/01/16 02:43:21;;;;;;;7.57;1.25;;;;;;;;;;4984159;28;20122;-65
2024/01/16 02:45:47;;;;;;;6.22;1.25;;;;;;;;;;4972916;28;20600;-65
2024/01/16 02:48:13;;;;;;;7.53;1.27;;;;;;;;;;4972733;28;20042;-65
2024/01/16 02:50:39;;;;;;;6.82;1.23;;;;;;;;;;4972467;28;20138;-65
2024/01/16 02:53:05;;;;;;;6.07;1.33;;;;;;;;;;4972182;28;20706;-65
2024/01/16 02:55:31;;;;;;;6.40;1.33;;;;;;;;;;4972643;28;20081;-65
2024/01/16 02:57:57;;;;;;;10.10;0.95;;;;;;;;;;4972842;28;20049;-65
2024/01/16 03:00:23;;;;;;;7.13;0.88;;;;;;;;;;4987752;28;20459;-65
2024/01/16 03:02:49;;;;;;;4.00;0.75;;;;;;;;;;4988601;28;20063;-65
2024/01/16 03:05:15;;;;;;;6.50;1.00;;;;;;;;;;4972541;28;20058;-65
2024/01/16 03:07:41;;;;;;;2.58;0.80;;;;;;;;;;4981863;28;20046;-65
2024/01/16 03:10:08;;;;;;;6.68;1.00;;;;;;;;;;4991937;28;20050;-65
2024/01/16 03:12:34;;;;;;;4.55;1.13;;;;;;;;;;4975277;28;20650;-65
2024/01/16 03:15:00;;;;;;;4.20;0.80;;;;;;;;;;4975464;28;20039;-65
2024/01/16 03:17:26;;;;;;;7.13;1.30;;;;;;;;;;4975415;28;20041;-65
2024/01/16 03:19:52;;;;;;;4.13;1.55;;;;;;;;;;4971710;28;20371;-65
2024/01/16 03:22:18;;;;;;;5.82;1.30;;;;;;;;;;4991336;28;20042;-66
2024/01/16 03:24:44;;;;;;;4.82;0.95;;;;;;;;;;4973428;28;20078;-65
2024/01/16 03:27:10;;;;;;;6.10;0.70;;;;;;;;;;4971999;28;20050;-65
2024/01/16 03:29:36;;;;;;;3.95;0.70;;;;;;;;;;4971796;28;20050;-65
2024/01/16 03:32:02;;;;;;;6.70;1.30;;;;;;;;;;4972023;28;20069;-65
2024/01/16 03:34:31;;;;;;;4.15;0.70;;;;;;;;;;4971834;28;20047;-65
2024/01/16 03:36:57;;;;;;;2.40;0.70;;;;;;;;;;4990797;28;20071;-65
2024/01/16 03:39:23;;;;;;;5.05;1.02;;;;;;;;;;4984545;28;20043;-65
2024/01/16 03:41:49;;;;;;;5.35;0.93;;;;;;;;;;4971915;28;20586;-66
2024/01/16 03:44:15;;;;;;;6.18;1.50;;;;;;;;;;4984502;28;20038;-66
2024/01/16 03:46:41;;;;;;;7.15;1.20;;;;;;;;;;4990543;28;20503;-65
2024/01/16 03:49:07;;;;;;;4.75;1.10;;;;;;;;;;4971289;28;20034;-65
2024/01/16 03:51:33;;;;;;;6.43;0.95;;;;;;;;;;4971392;28;20031;-65
2024/01/16 03:53:59;;;;;;;7.68;1.00;;;;;;;;;;4971090;28;20043;-66
2024/01/16 03:56:25;;;;;;;6.95;1.00;;;;;;;;;;4971608;28;20094;-66
2024/01/16 03:58:51;;;;;;;2.95;0.68;;;;;;;;;;4972905;28;20126;-65
2024/01/16 04:01:17;;;;;;;4.88;1.10;;;;;;;;;;4990711;28;20150;-65
2024/01/16 04:03:43;;;;;;;11.07;1.75;;;;;;;;;;4981878;28;20118;-65
2024/01/16 04:06:18;;;;;;;4.75;0.85;;;;;;;;;;4971581;28;20043;-65
2024/01/16 04:08:45;;;;;;;6.03;0.90;;;;;;;;;;4971167;28;20142;-65
2024/01/16 04:11:14;;;;;;;10.52;1.27;;;;;;;;;;4973470;28;20554;-65
2024/01/16 04:13:41;;;;;;;4.85;1.08;;;;;;;;;;4986797;28;20552;-65
2024/01/16 04:16:07;;;;;;;5.80;1.20;;;;;;;;;;4971039;28;20062;-65
2024/01/16 04:18:39;;;;;;;9.80;1.20;;;;;;;;;;4970828;28;20070;-65
2024/01/16 04:21:05;;;;;;;;;;;;;;;;;;4980675;28;20114;-65
2024/01/16 04:23:32;;;;;;;8.13;1.88;;;;;;;;;;4984557;28;19953;-65
2024/01/16 04:25:57;;;;;;;6.82;1.13;;;;;;;;;;4977077;28;20042;-65
2024/01/16 04:28:23;;;;;;;4.20;0.90;;;;;;;;;;4964664;28;20481;-66
2024/01/16 04:30:50;;;;;;;8.27;1.20;;;;;;;;;;4970971;28;20050;-66
2024/01/16 04:33:16;;;;;;;6.95;1.02;;;;;;;;;;4971248;28;20085;-66
2024/01/16 04:35:42;;;;;;;8.23;1.20;;;;;;;;;;4969892;28;20043;-66
2024/01/16 04:38:08;;;;;;;8.48;1.10;;;;;;;;;;4970953;28;20039;-66
2024/01/16 04:40:34;;;;;;;8.13;1.05;;;;;;;;;;4970565;28;20061;-66
2024/01/16 04:43:00;;;;;;;10.73;1.33;;;;;;;;;;4970381;28;20359;-66
2024/01/16 04:45:26;;;;;;;11.38;1.50;;;;;;;;;;4970270;28;20051;-66
2024/01/16 04:47:52;;;;;;;7.57;1.38;;;;;;;;;;4970482;28;20081;-66
2024/01/16 04:50:19;;;;;;;6.75;1.35;;;;;;;;;;4970372;28;20751;-66
2024/01/16 04:52:45;;;;;;;8.65;1.30;;;;;;;;;;4970650;28;20050;-65
2024/01/16 04:55:11;;;;;;;7.38;1.80;;;;;;;;;;4972575;28;20648;-66
2024/01/16 04:57:37;;;;;;;10.57;1.50;;;;;;;;;;4990095;28;20350;-66
2024/01/16 05:00:06;;;;;;;7.75;1.67;;;;;;;;;;4980209;28;20539;-65
2024/01/16 05:02:33;;;;;;;7.30;1.33;;;;;;;;;;4970582;28;20043;-65
2024/01/16 05:04:59;;;;;;;3.08;0.90;;;;;;;;;;4969749;28;20066;-65
2024/01/16 05:07:26;;;;;;;8.70;1.30;;;;;;;;;;4974367;28;20042;-66
2024/01/16 05:09:52;;;;;;;5.55;1.20;;;;;;;;;;4972453;28;20042;-66
2024/01/16 05:12:18;;;;;;;5.43;1.23;;;;;;;;;;4978441;28;20105;-66
2024/01/16 05:14:44;;;;;;;5.43;1.15;;;;;;;;;;4970060;28;20046;-65
2024/01/16 05:17:10;;;;;;;6.18;0.90;;;;;;;;;;4969935;28;20236;-65
2024/01/16 05:19:36;;;;;;;8.27;1.17;;;;;;;;;;4969729;28;20109;-65
2024/01/16 05:22:02;;;;;;;14.07;2.10;;;;;;;;;;4987103;28;20557;-65
2024/01/16 05:24:28;;;;;;;4.30;0.70;;;;;;;;;;4968875;28;20045;-66
2024/01/16 05:26:54;;;;;;;9.13;1.10;;;;;;;;;;4983466;28;20035;-65
2024/01/16 05:29:20;;;;;;;8.27;0.90;;;;;;;;;;4970738;28;20039;-65
2024/01/16 05:31:46;;;;;;;4.68;1.00;;;;;;;;;;4970149;28;20469;-65
2024/01/16 05:34:12;;;;;;;9.05;1.48;;;;;;;;;;4970502;28;20039;-66
2024/01/16 05:36:39;;;;;;;9.57;1.10;;;;;;;;;;4982257;28;20050;-66
2024/01/16 05:39:05;;;;;;;6.95;1.00;;;;;;;;;;4988682;28;20030;-66
2024/01/16 05:41:34;;;;;;;5.53;1.13;;;;;;;;;;4969869;28;20060;-66
2024/01/16 05:44:03;;;;;;;5.10;0.90;;;;;;;;;;4978186;28;20053;-65
2024/01/16 05:46:30;;;;;;;8.98;1.05;;;;;;;;;;4988909;28;20046;-65
2024/01/16 05:48:56;;;;;;;8.88;1.17;;;;;;;;;;4974180;28;20062;-65
2024/01/16 05:51:22;;;;;;;8.05;1.10;;;;;;;;;;4969650;28;20046;-66
2024/01/16 05:53:48;;;;;;;4.22;1.70;;;;;;;;;;4970090;28;20043;-65
2024/01/16 05:56:14;;;;;;;4.50;1.25;;;;;;;;;;4971790;28;20046;-65
2024/01/16 05:58:40;;;;;;;7.63;1.60;;;;;;;;;;4973268;28;20497;-65
2024/01/16 06:01:06;;;;;;;9.68;1.40;;;;;;;;;;4973505;28;20066;-65
2024/01/16 06:03:32;;;;;;;7.40;1.38;;;;;;;;;;4971288;28;20501;-65
2024/01/16 06:05:58;;;;;;;6.82;1.83;;;;;;;;;;4973313;28;20081;-65
2024/01/16 06:08:24;;;;;;;12.13;1.88;;;;;;;;;;4973344;28;20078;-65
2024/01/16 06:10:50;;;;;;;6.97;1.63;;;;;;;;;;4973535;28;20409;-65
2024/01/16 06:13:19;;;;;;;6.70;1.95;;;;;;;;;;4955900;28;20050;-65
2024/01/16 06:15:45;;;;;;;9.75;1.65;;;;;;;;;;4953913;29;20415;-66
2024/01/16 06:18:11;;;;;;;7.57;1.80;;;;;;;;;;4953834;29;20055;-66
2024/01/16 06:20:37;;;;;;;6.15;1.40;;;;;;;;;;4965085;28;20042;-66
2024/01/16 06:23:03;;;;;;;7.32;1.63;;;;;;;;;;4973135;28;20173;-66
2024/01/16 06:25:29;;;;;;;4.78;1.48;;;;;;;;;;4957393;28;20142;-66
2024/01/16 06:27:55;;;;;;;13.77;4.28;;;;;;;;;;4965740;28;20647;-66
2024/01/16 06:30:23;;;;;;;9.23;3.25;;;;;;;;;;4953615;29;20166;-66
2024/01/16 06:32:49;;;;;;;13.07;2.97;;;;;;;;;;4966458;28;20500;-66
2024/01/16 06:35:16;;;;;;;10.18;2.00;;;;;;;;;;4971830;28;20101;-66
2024/01/16 06:37:42;;;;;;;7.70;1.80;;;;;;;;;;4971075;28;20038;-66
2024/01/16 06:40:09;;;;;;;9.02;1.73;;;;;;;;;;4972740;28;20038;-66
2024/01/16 06:42:35;;;;;;;3.88;1.38;;;;;;;;;;4955831;28;20106;-66
2024/01/16 06:45:02;;;;;;;15.00;2.55;;;;;;;;;;4958701;28;20605;-66
2024/01/16 06:47:28;;;;;;;11.55;3.15;;;;;;;;;;4964674;28;20046;-65
2024/01/16 06:49:54;;;;;;;6.78;2.50;;;;;;;;;;4960004;28;20105;-65
2024/01/16 06:52:20;;;;;;;9.70;2.35;;;;;;;;;;4963621;28;20043;-65
2024/01/16 06:54:46;;;;;;;7.78;2.35;;;;;;;;;;4962008;28;20645;-65
2024/01/16 06:57:12;;;;;;;8.38;2.42;;;;;;;;;;4969851;28;20034;-64
2024/01/16 06:59:38;;;;;;;16.48;3.63;;;;;;;;;;4957871;28;20046;-64
2024/01/16 07:02:04;;;;;;;8.65;2.58;;;;;;;;;;4972322;28;20079;-64
2024/01/16 07:04:30;;;;;;;8.55;2.30;;;;;;;;;;4972092;28;20540;-64
2024/01/16 07:06:56;;;;;;;12.25;2.78;;;;;;;;;;4971119;28;20047;-64
2024/01/16 07:09:23;;;;;;;9.40;2.63;;;;;;;;;;4972267;28;20078;-64
2024/01/16 07:11:49;;;;;;;9.10;2.47;;;;;;;;;;4965886;28;20392;-64
2024/01/16 07:14:14;;;;;;;11.55;2.92;;;;;;;;;;4969446;28;20118;-65
2024/01/16 07:16:40;;;;;;;10.13;2.97;;;;;;;;;;4960754;28;20466;-65
2024/01/16 07:19:06;;;;;;;7.95;2.58;;;;;;;;;;4952789;29;20043;-65
2024/01/16 07:21:33;;;;;;;9.98;2.90;;;;;;;;;;4961468;28;20047;-65
2024/01/16 07:23:59;;;;;;;8.23;3.28;;;;;;;;;;4966801;28;20541;-65
2024/01/16 07:26:25;;;;;;;9.05;2.97;;;;;;;;;;4952729;29;20643;-65
2024/01/16 07:28:51;;;;;;;9.10;2.92;;;;;;;;;;4940784;28;20138;-65
2024/01/16 07:31:17;;;;;;;7.05;3.13;;;;;;;;;;4950207;28;20045;-66
2024/01/16 07:33:43;;;;;;;12.60;3.50;;;;;;;;;;4950923;29;20505;-65
2024/01/16 07:36:10;;;;;;;11.07;4.32;;;;;;;;;;4966187;28;20047;-65
2024/01/16 07:38:36;;;;;;;11.50;3.67;;;;;;;;;;4952181;28;20431;-65
2024/01/16 07:41:02;;;;;;;9.73;3.58;;;;;;;;;;4952229;28;20040;-65
2024/01/16 07:43:29;;;;;;;11.60;3.65;;;;;;;;;;4958387;28;20102;-64
2024/01/16 07:45:55;;;;;;;10.15;4.43;;;;;;;;;;4965728;28;20039;-64
2024/01/16 07:48:22;;;;;;;9.25;3.90;;;;;;;;;;4955839;28;20419;-64
2024/01/16 07:50:48;;;;;;;12.40;4.05;;;;;;;;;;4952034;29;20043;-64
2024/01/16 07:53:15;;;;;;;11.25;3.97;;;;;;;;;;4952270;28;20079;-65
2024/01/16 07:55:41;;;;;;;12.88;5.13;;;;;;;;;;4952024;28;20047;-65
2024/01/16 07:58:07;;;;;;;10.23;4.20;;;;;;;;;;4951860;28;20047;-65
2024/01/16 08:00:33;;;;;;;8.85;4.38;;;;;;;;;;4952081;28;20039;-65
2024/01/16 08:02:59;;;;;;;8.02;4.07;;;;;;;;;;4965687;28;20039;-64
2024/01/16 08:05:27;;;;;;;12.10;4.53;;;;;;;;;;4972257;28;20059;-64
2024/01/16 08:07:53;;;;;;;11.25;4.47;;;;;;;;;;4976790;28;21406;-65
2024/01/16 08:10:19;;;;;;;10.90;4.38;;;;;;;;;;4989658;28;20658;-64
2024/01/16 08:12:45;;;;;;;10.90;4.80;;;;;;;;;;4971047;28;20071;-65
2024/01/16 08:15:11;;;;;;;9.98;4.72;;;;;;;;;;4967844;28;20800;-65
2024/01/16 08:17:37;;;;;;;9.93;4.90;;;;;;;;;;4971774;28;20035;-65
2024/01/16 08:20:03;;;;;;;16.05;5.30;;;;;;;;;;4972232;28;20042;-65
2024/01/16 08:22:29;;;;;;;10.75;4.82;;;;;;;;;;4970921;28;20122;-65
2024/01/16 08:24:56;;;;;;;10.60;4.60;;;;;;;;;;4971059;28;20585;-64
2024/01/16 08:27:22;;;;;;;8.15;4.60;;;;;;;;;;4982740;28;20630;-65
2024/01/16 08:29:49;;;;;;;10.27;5.00;;;;;;;;;;4968445;28;20042;-64
2024/01/16 08:32:16;;;;;;;9.90;4.60;;;;;;;;;;4969677;28;20137;-65
2024/01/16 08:34:43;;;;;;;10.25;4.10;;;;;;;;;;4969916;28;20046;-65
2024/01/16 08:37:09;;;;;;;9.93;5.03;;;;;;;;;;4972948;28;20621;-65
2024/01/16 08:39:36;;;;;;;8.93;5.15;;;;;;;;;;4969644;28;20047;-65
2024/01/16 08:42:02;;;;;;;12.52;5.40;;;;;;;;;;4937729;28;20053;-65
2024/01/16 08:44:29;;;;;;;12.73;5.82;;;;;;;;;;4969743;28;20042;-64
2024/01/16 08:46:55;;;;;;;14.40;5.43;;;;;;;;;;4970365;28;20066;-64
2024/01/16 08:49:21;;;;;;;14.30;5.28;;;;;;;;;;4968271;28;20041;-64
2024/01/16 08:51:47;;;;;;;9.88;4.68;;;;;;;;;;4961030;28;20066;-64
2024/01/16 08:54:13;;;;;;;10.70;4.53;;;;;;;;;;4956984;28;20085;-64
2024/01/16 08:56:39;;;;;;;7.47;4.07;;;;;;;;;;4967472;28;20063;-65
2024/01/16 08:59:05;;;;;;;9.40;3.97;;;;;;;;;;4969317;28;20035;-65
2024/01/16 09:01:31;;;;;;;11.20;4.55;;;;;;;;;;4967834;28;20046;-64
2024/01/16 09:03:57;;;;;;;11.98;4.65;;;;;;;;;;4969846;28;20074;-64
2024/01/16 09:06:23;;;;;;;8.70;3.67;;;;;;;;;;4977653;28;20053;-64
2024/01/16 09:08:49;;;;;;;9.15;4.10;;;;;;;;;;4955796;28;20046;-63
2024/01/16 09:11:15;;;;;;;7.50;3.80;;;;;;;;;;4968294;28;20038;-63
2024/01/16 09:13:41;;;;;;;7.38;3.90;;;;;;;;;;4965560;28;20480;-63
2024/01/16 09:16:07;;;;;;;7.93;3.95;;;;;;;;;;4963351;28;20047;-63
2024/01/16 09:18:33;;;;;;;7.32;3.70;;;;;;;;;;4965179;28;20125;-64
2024/01/16 09:20:59;;;;;;;7.78;3.72;;;;;;;;;;4965681;28;20035;-63
2024/01/16 09:23:25;;;;;;;9.38;4.05;;;;;;;;;;4973020;28;20039;-63
2024/01/16 09:25:51;;;;;;;7.97;4.50;;;;;;;;;;4979078;28;20052;-62
2024/01/16 09:28:17;;;;;;;8.15;4.72;;;;;;;;;;4968832;28;20586;-63
2024/01/16 09:30:43;;;;;;;7.90;4.30;;;;;;;;;;4970461;28;20042;-62
2024/01/16 09:33:10;;;;;;;8.73;5.20;;;;;;;;;;4971667;28;20441;-62
2024/01/16 09:35:36;;;;;;;11.73;5.65;;;;;;;;;;4971847;28;20541;-62
2024/01/16 09:38:04;;;;;;;11.60;5.63;;;;;;;;;;4971916;28;20500;-62
2024/01/16 09:40:30;;;;;;;13.15;5.97;;;;;;;;;;4972660;28;20043;-62
2024/01/16 09:42:57;;;;;;;14.18;6.28;;;;;;;;;;4971865;28;20038;-62
2024/01/16 09:45:23;;;;;;;12.73;7.00;;;;;;;;;;4972215;28;20132;-63
2024/01/16 09:47:52;;;;;;;13.30;7.03;;;;;;;;;;4976489;28;20089;-63
2024/01/16 09:50:19;;;;;;;17.92;7.47;;;;;;;;;;4967552;28;20564;-63
2024/01/16 09:52:48;;;;;;;15.23;7.90;;;;;;;;;;4972747;28;20046;-63
2024/01/16 09:55:14;;;;;;;15.15;8.38;;;;;;;;;;4970842;28;20096;-63
2024/01/16 09:57:41;;;;;;;13.85;7.78;;;;;;;;;;4975106;28;20065;-63
2024/01/16 10:00:11;;;;;;;19.02;8.68;;;;;;;;;;4970051;28;20730;-62
2024/01/16 10:02:39;;;;;;;15.90;7.63;;;;;;;;;;4976620;28;20038;-63
2024/01/16 10:05:06;;;;;;;17.17;7.63;;;;;;;;;;4970917;28;20141;-63
2024/01/16 10:07:33;;;;;;;13.70;6.65;;;;;;;;;;4971792;28;20046;-62
2024/01/16 10:10:00;;;;;;;11.48;6.90;;;;;;;;;;4971301;28;20552;-62
2024/01/16 10:12:26;;;;;;;14.15;7.45;;;;;;;;;;4970002;28;20165;-64
2024/01/16 10:14:52;;;;;;;11.77;5.45;;;;;;;;;;4970460;28;20061;-62
2024/01/16 10:17:18;;;;;;;10.75;6.43;;;;;;;;;;4971204;28;20038;-63
2024/01/16 10:19:54;;;;;;;13.40;5.63;;;;;;;;;;4974070;28;20043;-62
2024/01/16 10:22:22;;;;;;;12.27;6.43;;;;;;;;;;4974290;28;20072;-62
2024/01/16 10:24:48;;;;;;;9.68;5.70;;;;;;;;;;4971613;28;20457;-62
2024/01/16 10:27:17;;;;;;;13.60;5.22;;;;;;;;;;4974546;28;20138;-63
2024/01/16 10:29:59;;;;;;;7.85;4.13;;;;;;;;;;4961911;28;20052;-63
2024/01/16 10:32:32;;;;;;;9.80;4.03;;;;;;;;;;4976484;28;20704;-62
2024/01/16 10:35:08;;;;;;;7.38;3.25;;;;;;;;;;4970260;28;20046;-63
2024/01/16 10:37:44;;;;;;;10.38;3.20;;;;;;;;;;4964571;28;20394;-63
2024/01/16 10:40:11;;;;;;;9.07;3.17;;;;;;;;;;4964441;28;20030;-62
2024/01/16 10:42:38;;;;;;;7.22;2.53;;;;;;;;;;4974018;28;20074;-63
2024/01/16 10:45:05;;;;;;;7.10;2.13;;;;;;;;;;4975269;28;20038;-63
2024/01/16 10:47:34;;;;;;;6.80;1.92;;;;;;;;;;4974540;28;20540;-62
2024/01/16 10:50:01;;;;;;;4.03;2.15;;;;;;;;;;4968905;28;20121;-63
2024/01/16 10:52:28;;;;;;;4.30;1.70;;;;;;;;;;4975921;28;20050;-63
2024/01/16 10:54:56;;;;;;;3.67;1.60;;;;;;;;;;4982127;28;20046;-63
2024/01/16 10:57:23;;;;;;;5.55;1.65;;;;;;;;;;4968966;28;20071;-62
2024/01/16 10:59:56;;;;;;;7.72;1.60;;;;;;;;;;4973873;28;20049;-63
2024/01/16 11:02:25;;;;;;;9.43;2.10;;;;;;;;;;4970488;28;20425;-63
2024/01/16 11:04:53;;;;;;;2.67;1.10;;;;;;;;;;4971381;28;20154;-63
2024/01/16 11:07:22;;;;;;;7.60;1.63;;;;;;;;;;4969550;28;20401;-63
2024/01/16 11:09:49;;;;;;;6.13;1.40;;;;;;;;;;4969761;28;20062;-63
2024/01/16 11:12:17;;;;;;;6.32;1.25;;;;;;;;;;4973510;28;20109;-63
2024/01/16 11:14:45;;;;;;;4.82;1.30;;;;;;;;;;4970553;28;20417;-63
2024/01/16 11:17:17;;;;;;;6.55;1.30;;;;;;;;;;4971776;28;20069;-62
2024/01/16 11:19:43;;;;;;;5.20;1.30;;;;;;;;;;4973103;28;20505;-62
2024/01/16 11:22:10;;;;;;;6.63;1.30;;;;;;;;;;4969830;28;20055;-62
2024/01/16 11:24:36;;;;;;;4.35;1.20;;;;;;;;;;4972320;28;20078;-63
2024/01/16 11:27:02;;;;;;;5.50;1.55;;;;;;;;;;4964174;28;20067;-63
2024/01/16 11:29:29;;;;;;;9.05;1.42;;;;;;;;;;4970146;28;20058;-62
2024/01/16 11:31:56;;;;;;;5.03;1.30;;;;;;;;;;4973856;28;20105;-63
2024/01/16 11:34:41;;;;;;;4.68;1.35;;;;;;;;;;4973788;28;20042;-62
2024/01/16 11:37:12;;;;;;;5.63;1.33;;;;;;;;;;4970396;28;20062;-62
2024/01/16 11:39:38;;;;;;;4.72;1.70;;;;;;;;;;4972604;28;20048;-63
2024/01/16 11:42:04;;;;;;;5.35;1.42;;;;;;;;;;4969877;28;20619;-63
2024/01/16 11:44:46;;;;;;;11.10;1.77;;;;;;;;;;4960055;28;20050;-63
2024/01/16 11:47:20;;;;;;;6.32;1.65;;;;;;;;;;4983816;28;20047;-62
2024/01/16 11:49:49;;;;;;;6.45;1.80;;;;;;;;;;4970526;28;20043;-62
2024/01/16 11:52:15;;;;;;;8.45;2.75;;;;;;;;;;4967061;28;20129;-63
2024/01/16 11:54:42;;;;;;;4.45;1.98;;;;;;;;;;4986878;28;20100;-62
2024/01/16 11:57:27;;;;;;;8.70;2.50;;;;;;;;;;4974631;28;20035;-62
2024/01/16 12:00:12;;;;;;;6.93;2.83;;;;;;;;;;4973168;28;20042;-65
2024/01/16 12:02:54;;;;;;;8.95;3.03;;;;;;;;;;4975915;28;20078;-65
2024/01/16 12:05:21;;;;;;;6.20;2.65;;;;;;;;;;4978761;28;20058;-66
2024/01/16 12:07:52;;;;;;;6.80;2.95;;;;;;;;;;4965581;28;20051;-66
2024/01/16 12:10:19;;;;;;;10.55;3.33;;;;;;;;;;4970713;28;20125;-66
2024/01/16 12:12:45;;;;;;;11.60;3.47;;;;;;;;;;4972377;28;20042;-66
2024/01/16 12:15:18;;;;;;;10.77;3.35;;;;;;;;;;4972007;28;20049;-65
2024/01/16 12:17:54;;;;;;;9.48;3.78;;;;;;;;;;4972850;28;20046;-65
2024/01/16 12:20:21;;;;;;;8.35;3.38;;;;;;;;;;4971235;28;20048;-65
2024/01/16 12:22:52;;;;;;;8.90;3.95;;;;;;;;;;4969934;28;20042;-65
2024/01/16 12:25:21;;;;;;;11.18;3.90;;;;;;;;;;4978418;28;20038;-66
2024/01/16 12:27:47;;;;;;;6.93;3.75;;;;;;;;;;4977402;28;20541;-66
2024/01/16 12:30:14;;;;;;;11.07;4.78;;;;;;;;;;4974561;28;20085;-66
2024/01/16 12:32:40;;;;;;;11.80;5.35;;;;;;;;;;4968965;28;20038;-65
2024/01/16 12:35:06;;;;;;;11.95;5.72;;;;;;;;;;4969754;28;20588;-65
2024/01/16 12:37:32;;;;;;;13.52;6.90;;;;;;;;;;4972739;28;20039;-66
2024/01/16 12:39:58;;;;;;;13.13;6.40;;;;;;;;;;4951256;28;20607;-66
2024/01/16 12:42:24;;;;;;;11.85;7.00;;;;;;;;;;4969859;28;20042;-66
2024/01/16 12:44:50;;;;;;;14.60;6.72;;;;;;;;;;4974815;28;20058;-66
2024/01/16 12:47:19;;;;;;;12.77;6.07;;;;;;;;;;4986174;28;20789;-65
2024/01/16 12:49:45;;;;;;;18.27;7.95;;;;;;;;;;4968884;28;20047;-66
2024/01/16 12:52:18;;;;;;;12.82;6.13;;;;;;;;;;4968395;28;20755;-66
2024/01/16 12:54:45;;;;;;;14.23;7.03;;;;;;;;;;4970424;28;20102;-65
2024/01/16 12:57:13;;;;;;;14.75;7.10;;;;;;;;;;4970814;28;20461;-67
2024/01/16 12:59:40;;;;;;;13.68;6.20;;;;;;;;;;4975464;28;20049;-66
2024/01/16 13:02:07;;;;;;;12.98;6.88;;;;;;;;;;4967169;28;20047;-66
2024/01/16 13:04:33;;;;;;;11.50;6.07;;;;;;;;;;4958170;28;20639;-66
2024/01/16 13:07:05;;;;;;;15.85;6.38;;;;;;;;;;4969497;28;20457;-66
2024/01/16 13:09:31;;;;;;;11.40;5.70;;;;;;;;;;4969783;28;20122;-66
2024/01/16 13:12:00;;;;;;;13.18;6.53;;;;;;;;;;4973181;28;20057;-66
2024/01/16 13:14:26;;;;;;;12.20;5.40;;;;;;;;;;4970159;28;20125;-66
2024/01/16 13:16:55;;;;;;;16.45;6.82;;;;;;;;;;4969228;28;20149;-66
2024/01/16 13:19:21;;;;;;;16.77;6.93;;;;;;;;;;4970117;28;20401;-65
2024/01/16 13:21:50;;;;;;;12.18;6.38;;;;;;;;;;4969518;28;20042;-65
2024/01/16 13:24:23;;;;;;;15.60;6.47;;;;;;;;;;4967904;28;20047;-65
2024/01/16 13:26:49;;;;;;;;;;;;;;;;;;4965966;28;20050;-65
2024/01/16 13:29:15;;;;;;;10.02;5.28;;;;;;;;;;4967393;28;19929;-65
2024/01/16 13:31:41;;;;;;;13.55;5.47;;;;;;;;;;4967787;28;20054;-65
2024/01/16 13:34:08;;;;;;;13.50;5.05;;;;;;;;;;4968973;28;20073;-65
2024/01/16 13:36:34;;;;;;;14.80;4.60;;;;;;;;;;4969001;28;20134;-65
2024/01/16 13:39:01;;;;;;;10.27;4.22;;;;;;;;;;4970606;28;20624;-65
2024/01/16 13:41:27;;;;;;;11.73;4.50;;;;;;;;;;4969217;28;20043;-65
2024/01/16 13:43:53;;;;;;;9.27;4.05;;;;;;;;;;4970303;28;20043;-65
2024/01/16 13:46:19;;;;;;;9.38;3.90;;;;;;;;;;4969914;28;20401;-66
2024/01/16 13:48:45;;;;;;;10.68;4.13;;;;;;;;;;4969524;28;20043;-66
2024/01/16 13:51:11;;;;;;;9.95;3.90;;;;;;;;;;4969915;28;20047;-65
2024/01/16 13:53:38;;;;;;;10.20;3.70;;;;;;;;;;4969051;28;20039;-65
2024/01/16 13:56:04;;;;;;;10.20;3.40;;;;;;;;;;4969924;28;20755;-65
2024/01/16 13:58:31;;;;;;;9.70;3.78;;;;;;;;;;4969703;28;20097;-65
2024/01/16 14:00:57;;;;;;;9.45;3.80;;;;;;;;;;4969617;28;20047;-66
2024/01/16 14:03:23;;;;;;;12.00;3.22;;;;;;;;;;4969285;28;20102;-66
2024/01/16 14:05:49;;;;;;;8.57;2.83;;;;;;;;;;4969765;28;20498;-65
2024/01/16 14:08:15;;;;;;;13.00;3.05;;;;;;;;;;4969798;28;20117;-65
2024/01/16 14:10:41;;;;;;;7.75;3.33;;;;;;;;;;4969684;28;20050;-65
2024/01/16 14:13:07;;;;;;;8.32;2.92;;;;;;;;;;4968432;28;20049;-65
2024/01/16 14:15:34;;;;;;;7.53;2.80;;;;;;;;;;4969380;28;20048;-65
2024/01/16 14:18:00;;;;;;;8.43;2.78;;;;;;;;;;4970831;28;20126;-66
2024/01/16 14:20:26;;;;;;;6.45;2.40;;;;;;;;;;4970514;28;20038;-66
2024/01/16 14:22:53;;;;;;;8.75;2.63;;;;;;;;;;4956828;28;20645;-66
2024/01/16 14:25:19;;;;;;;4.28;2.33;;;;;;;;;;4972184;28;20077;-66
2024/01/16 14:27:49;;;;;;;4.35;2.58;;;;;;;;;;4986663;28;20043;-66
2024/01/16 14:30:15;;;;;;;5.05;2.25;;;;;;;;;;4971543;28;20047;-66
2024/01/16 14:32:43;;;;;;;7.63;3.50;;;;;;;;;;4971599;28;20130;-65
2024/01/16 14:35:10;;;;;;;13.05;5.70;;;;;;;;;;4971840;28;20078;-66
2024/01/16 14:37:36;;;;;;;19.02;7.50;;;;;;;;;;4971639;28;20394;-66
2024/01/16 14:40:06;;;;;;;18.45;9.32;;;;;;;;;;4972126;28;20077;-65